x

Texas Tower #4 - 75 Nm East Of Long Beach, Nj (44066) Wave Buoy

5:50pm - Wed 23rd Apr 2014 All times are EDT. -4 hours from GMT.

  • Sig Wave height 4.9ft
  • Swell Direction
  • Peak Period 6s
  • Average Period 5s
  • Wind
    20mph, 25mph gusts
  • Sea Temp 45°f
  • Air Temp 49°f
  • Sea Pressure 1002.1mb
  • Texas Tower #4 - 75 Nm East Of Long Beach, Nj
  • Texas Tower #4 - 75 Nm East Of Long Beach, Nj

More Historic Weather Station data

Upgrade to MSW Pro to gain access to the past 30 days of data for over 8000 Wavebouys and Weather Stations around the globe.

Join Pro

Comparision Forecast

View Surf forecast
   
Wed 04/23 5:50pm 5ft 6s 5s 20 25 mph 1002.1mb 45f 49f
4:50pm 5ft 6s 5s 18 20 mph 1001.7mb 45f 49f
3:50pm 5.5ft 6s 5s 16 18 mph 1001.4mb 44f 47f
2:50pm 5ft 6s 5s 16 18 mph 1001.3mb 44f 47f
1:50pm 6ft 6s 5s 18 22 mph 1001.2mb 44f 47f
12:50pm 6ft 6s 5s 18 22 mph 1001.3mb 44f 47f
11:50am 5.5ft 6s 5s 16 20 mph 1001.4mb 44f 47f
10:50am 5ft 6s 5s 20 27 mph 1001mb 44f 47f
9:50am 6ft 6s 5s 22 25 mph 1001.2mb 44f 47f
8:50am 5ft 5s 5s 22 27 mph 1000.8mb 45f 48f
7:50am 5ft 4s 5s 22 27 mph 1000.5mb 45f 47f
6:50am 4.5ft 8s 5s 27 31 mph 999.8mb 45f 48f
5:50am 4.5ft 9s 6s 20 22 mph 999.2mb 45f 49f
4:50am 4.5ft 9s 6s 13 16 mph 999.3mb 45f 49f
3:50am 4ft 8s 6s 13 16 mph 999.4mb 45f 49f
2:50am 4ft 8s 6s 11 13 mph 999.5mb 45f 48f
1:50am 4ft 8s 6s 13 16 mph 999.7mb 45f 49f
12:50am 5ft 9s 6s 13 16 mph 1000mb 46f 48f
Tue 04/22 11:50pm 4.5ft 8s 5s 13 16 mph 1000.2mb 46f 49f
10:50pm 5ft 8s 6s 13 16 mph 1000.8mb 46f 48f
9:50pm 5ft 8s 6s 16 18 mph 1001.5mb 46f 49f
8:50pm 5ft 9s 7s 13 18 mph 1001.1mb 46f 49f
7:50pm 4.5ft 9s 6s 13 18 mph 1001.4mb 47f 49f
6:50pm 4.5ft 9s 7s 13 16 mph 1001.5mb 47f 48f
5:50pm 4.5ft 8s 7s 11 16 mph 1002mb 47f 48f
4:50pm 5ft 8s 7s 9 11 mph 1002.7mb 47f 51f
3:50pm 5ft 8s 7s 7 9 mph 1003.1mb 47f 50f
2:50pm 4.5ft 9s 7s 7
mph
1003.8mb 47f 49f
12:50pm 4.5ft 8s 7s 9
mph
1005.6mb 47f 49f
11:50am 4.5ft 8s 7s 7
mph
1006.9mb 47f 48f
10:50am 5ft 8s 7s 4 7 mph 1007.2mb 46f 48f
9:50am 4.5ft 8s 7s 7 9 mph 1007.4mb 46f 48f
8:50am 5ft 8s 7s 4 7 mph 1008mb 45f 47f
7:50am 5ft 8s 7s 4
mph
1008.7mb 45f 47f
6:50am 5ft 8s 7s 4
mph
1009mb 45f 46f
5:50am 5ft 8s 7s 4
mph
1009.1mb 45f 46f
4:50am 5ft 8s 7s 4
mph
1009.5mb 45f 46f
3:50am 4.5ft 9s 7s 4
mph
1009.8mb 45f 47f
2:50am 5ft 8s 7s 2
mph
1010.4mb 45f 47f
1:50am 5ft 10s 7s 2 4 mph 1010.9mb 45f 46f
12:50am 5ft 10s 7s 4
mph
1011.8mb 45f 46f
Mon 04/21 11:50pm 4.5ft 10s 7s 4
mph
1012.7mb 45f 46f
10:50pm 5ft 9s 7s 4 7 mph 1013mb 45f 46f
9:50pm 5ft 8s 7s 7 9 mph 1013.5mb 45f 45f
8:50pm 5ft 8s 7s 7
mph
1014.2mb 46f 45f
7:50pm 5ft 8s 6s 7 9 mph 1014.5mb 46f 45f
6:50pm 5ft 8s 6s 7
mph
1014.8mb 46f 46f
5:50pm 5ft 8s 6s 7
mph
1015.5mb 45f 46f
4:50pm 5ft 9s 6s 9 11 mph 1016.1mb 46f 45f
3:50pm 4.5ft 10s 6s 9
mph
1016.7mb 45f 45f
2:50pm 5ft 10s 6s 11 13 mph 1017.6mb 45f 45f
1:50pm 5ft 9s 6s 11 13 mph 1018.5mb 45f 45f
12:50pm 5ft 9s 6s 11
mph
1019.2mb 45f 45f
11:50am 5ft 9s 6s 11 13 mph 1020mb 45f 45f
10:50am 5ft 8s 6s 9 11 mph 1020.9mb 44f 45f
9:50am 5ft 8s 6s 11
mph
1021.3mb 44f 45f
8:50am 5ft 8s 6s 11 13 mph 1021.6mb 44f 45f
7:50am 5ft 8s 6s 11 13 mph 1021.8mb 44f 45f
6:50am 5ft 8s 6s 13 16 mph 1021.8mb 44f 45f
5:50am 6ft 9s 6s 13 16 mph 1021.9mb 44f 44f
4:50am 5.5ft 8s 6s 13 16 mph 1022.3mb 44f 44f
3:50am 6ft 8s 6s 13 16 mph 1022.9mb 44f 44f
2:50am 6ft 9s 6s 16 18 mph 1023.3mb 44f 44f
1:50am 5.5ft 8s 5s 18 20 mph 1023.9mb 44f 44f
12:50am 6ft 9s 5s 18 22 mph 1024.7mb 44f 44f
Sun 04/20 11:50pm 6ft 8s 5s 18 22 mph 1025.4mb 44f 43f
10:50pm 5.5ft 8s 5s 18 22 mph 1026.2mb 44f 43f
9:50pm 5.5ft 8s 5s 18 22 mph 1027.2mb 44f 43f
8:50pm 5.5ft 8s 5s 20 22 mph 1027.6mb 44f 43f
7:50pm 6ft 8s 5s 22 27 mph 1027.8mb 44f 43f
6:50pm 6ft 8s 5s 20 25 mph 1028.3mb 44f 43f
5:50pm 6ft 8s 5s 20 25 mph 1028.5mb 44f 43f
4:50pm 6.5ft 7s 5s 22 25 mph 1029mb 44f 43f
3:50pm 7ft 7s 6s 20 25 mph 1029.4mb 44f 44f
2:50pm 7.5ft 7s 6s 20 25 mph 1029.8mb 44f 44f
1:50pm 7.5ft 8s 6s 20 25 mph 1030.3mb 44f 44f
12:50pm 7.5ft 7s 6s 22 27 mph 1030.2mb 44f 44f
11:50am 7ft 7s 5s 22 29 mph 1030.8mb 44f 45f
10:50am 7ft 6s 5s 25 27 mph 1030.7mb 44f 45f
9:50am 5.5ft 5s 5s 25 29 mph 1029.8mb 44f 45f
8:50am 5ft 5s 5s 22 27 mph 1030mb 44f 45f
7:50am 5.5ft 8s 5s 22 25 mph 1029.6mb 44f 45f
6:50am 5ft 9s 5s 22 27 mph 1028.8mb 44f 45f
5:50am 5ft 9s 5s 22 27 mph 1028.6mb 44f 45f
4:50am 4.5ft 8s 5s 25 27 mph 1028mb 44f 46f
3:50am 3.5ft 10s 6s 22 29 mph 1027.4mb 44f 46f
2:50am 3.5ft 10s 8s 13
mph
1027.2mb 44f 46f
1:50am 3.5ft 10s 8s 9 11 mph 1026.7mb 44f 46f
12:50am 3.5ft 10s 8s 7 9 mph 1026.7mb 44f 46f
Sat 04/19 11:50pm 4ft 9s 8s 7
mph
1026.4mb 44f 46f